createdAt,value
2018-12-10T00:00:39.149Z,100914.09
2018-12-10T00:01:44.623Z,100917.50
2018-12-10T00:02:55.152Z,100920.05
2018-12-10T00:04:00.583Z,100920.48
2018-12-10T00:05:06.882Z,100915.37
2018-12-10T00:06:12.407Z,100918.36
2018-12-10T00:07:18.067Z,100924.70
2018-12-10T00:08:23.529Z,100919.20
2018-12-10T00:09:29.083Z,100918.79
2018-12-10T00:10:41.387Z,100914.13
2018-12-10T00:11:41.918Z,100913.70
2018-12-10T00:12:47.441Z,100914.56
2018-12-10T00:13:52.851Z,100917.94
2018-12-10T00:14:58.291Z,100915.81
2018-12-10T00:16:03.738Z,100915.80
2018-12-10T00:17:09.182Z,100912.86
2018-12-10T00:18:14.737Z,100927.64
2018-12-10T00:19:20.113Z,100926.38
2018-12-10T00:20:25.622Z,100925.97
2018-12-10T00:21:31.063Z,100929.35
2018-12-10T00:22:36.515Z,100925.55
2018-12-10T00:23:42.018Z,100926.82
2018-12-10T00:24:47.430Z,100934.42
2018-12-10T00:25:52.893Z,100926.82
2018-12-10T00:26:58.399Z,100926.39
2018-12-10T00:28:03.835Z,100930.20
2018-12-10T00:29:09.389Z,100926.83
2018-12-10T00:30:14.809Z,100923.02
2018-12-10T00:31:20.336Z,100924.70
2018-12-10T00:32:26.266Z,100927.25
2018-12-10T00:33:31.761Z,100926.83
2018-12-10T00:34:37.238Z,100929.77
2018-12-10T00:35:42.759Z,100925.97
2018-12-10T00:36:48.507Z,100928.09
2018-12-10T00:37:53.900Z,100937.39
2018-12-10T00:38:59.314Z,100936.13
2018-12-10T00:40:05.767Z,100944.59
2018-12-10T00:41:12.580Z,100937.39
2018-12-10T00:42:18.415Z,100942.46
2018-12-10T00:43:23.915Z,100942.48
2018-12-10T00:44:29.410Z,100942.48
2018-12-10T00:45:34.951Z,100946.27
2018-12-10T00:46:40.609Z,100949.25
2018-12-10T00:47:46.157Z,100943.33
2018-12-10T00:48:51.554Z,100947.56
2018-12-10T00:49:57.093Z,100952.22
2018-12-10T00:51:02.581Z,100953.45
2018-12-10T00:52:08.177Z,100959.39
2018-12-10T00:53:13.543Z,100965.30
2018-12-10T00:54:18.968Z,100955.58
2018-12-10T00:55:24.367Z,100956.85
2018-12-10T00:56:29.977Z,100957.27
2018-12-10T00:57:35.420Z,100962.79
2018-12-10T00:58:40.924Z,100959.83
2018-12-10T00:59:46.385Z,100958.98
2018-12-10T01:00:51.787Z,100958.56
2018-12-10T01:01:57.210Z,100954.33
2018-12-10T01:03:02.807Z,100963.62
2018-12-10T01:04:08.250Z,100958.53
2018-12-10T01:05:13.887Z,100962.80
2018-12-10T01:06:19.291Z,100969.96
2018-12-10T01:07:24.900Z,100966.14
2018-12-10T01:08:30.382Z,100964.45
2018-12-10T01:09:35.776Z,100974.20
2018-12-10T01:10:41.349Z,100970.80
2018-12-10T01:11:46.771Z,100967.84
2018-12-10T01:12:52.162Z,100965.72
2018-12-10T01:13:57.674Z,100972.48
2018-12-10T01:15:03.267Z,100974.60
2018-12-10T01:16:08.666Z,100971.65
2018-12-10T01:17:14.076Z,100970.80
2018-12-10T01:18:19.499Z,100971.63
2018-12-10T01:19:24.957Z,100969.07
2018-12-10T01:20:30.488Z,100972.88
2018-12-10T01:21:35.875Z,100973.31
2018-12-10T01:22:41.381Z,100973.34
2018-12-10T01:23:46.813Z,100975.86
2018-12-10T01:24:52.248Z,100979.67
2018-12-10T01:25:57.743Z,100979.23
2018-12-10T01:27:03.211Z,100982.64
2018-12-10T01:28:08.582Z,100984.73
2018-12-10T01:29:14.019Z,100990.66
2018-12-10T01:30:19.538Z,100990.23
2018-12-10T01:31:24.964Z,100991.52
2018-12-10T01:32:30.502Z,100992.78
2018-12-10T01:33:35.865Z,100995.74
2018-12-10T01:34:41.254Z,100999.53
2018-12-10T01:35:46.856Z,101005.86
2018-12-10T01:36:52.262Z,101002.48
2018-12-10T01:37:57.735Z,101010.95
2018-12-10T01:39:04.526Z,101008.39
2018-12-10T01:40:10.110Z,101012.62
2018-12-10T01:41:15.542Z,101006.27
2018-12-10T01:42:20.927Z,101019.39
2018-12-10T01:43:26.389Z,101013.89
2018-12-10T01:44:31.825Z,101021.08
2018-12-10T01:45:37.195Z,101014.73
2018-12-10T01:46:42.919Z,101016.86
2018-12-10T01:47:48.512Z,101019.43
2018-12-10T01:48:53.917Z,101021.52
2018-12-10T01:49:59.632Z,101024.92
2018-12-10T01:51:05.194Z,101035.48
2018-12-10T01:52:10.666Z,101037.61
2018-12-10T01:53:16.071Z,101037.63
2018-12-10T01:54:21.470Z,101047.34
2018-12-10T01:55:26.872Z,101052.02
2018-12-10T01:56:32.347Z,101047.36
2018-12-10T01:57:37.716Z,101052.02
2018-12-10T01:58:43.131Z,101044.45
2018-12-10T01:59:48.603Z,101045.30
2018-12-10T02:00:54.071Z,101041.48
2018-12-10T02:01:59.636Z,101044.85
2018-12-10T02:03:05.018Z,101043.19
2018-12-10T02:04:10.436Z,101052.91
2018-12-10T02:05:15.919Z,101045.30
2018-12-10T02:06:21.315Z,101045.27
2018-12-10T02:07:26.792Z,101056.70
2018-12-10T02:08:32.231Z,101055.86
2018-12-10T02:09:37.636Z,101054.17
2018-12-10T02:10:43.105Z,101057.53
2018-12-10T02:11:48.555Z,101052.89
2018-12-10T02:12:54.094Z,101048.22
2018-12-10T02:13:59.598Z,101052.47
2018-12-10T02:15:06.215Z,101052.04
2018-12-10T02:16:11.690Z,101049.05
2018-12-10T02:17:17.133Z,101048.63
2018-12-10T02:18:22.529Z,101052.00
2018-12-10T02:19:27.945Z,101052.00
2018-12-10T02:20:33.334Z,101049.88
2018-12-10T02:21:38.743Z,101049.88
2018-12-10T02:22:44.195Z,101057.45
2018-12-10T02:23:49.663Z,101062.53
2018-12-10T02:24:55.115Z,101056.20
2018-12-10T02:26:00.489Z,101061.25
2018-12-10T02:27:05.923Z,101052.39
2018-12-10T02:28:11.327Z,101051.52
2018-12-10T02:29:16.870Z,101050.23
2018-12-10T02:30:22.275Z,101057.42
2018-12-10T02:31:27.648Z,101051.51
2018-12-10T02:32:33.195Z,101062.09
2018-12-10T02:33:39.494Z,101057.44
2018-12-10T02:34:45.261Z,101059.97
2018-12-10T02:35:50.817Z,101056.98
2018-12-10T02:36:56.291Z,101062.45
2018-12-10T02:38:01.783Z,101065.87
2018-12-10T02:39:07.655Z,101060.80
2018-12-10T02:40:13.233Z,101070.09
2018-12-10T02:41:18.677Z,101066.72
2018-12-10T02:42:24.066Z,101070.11
2018-12-10T02:43:29.536Z,101077.69
2018-12-10T02:44:34.922Z,101068.80
2018-12-10T02:45:40.323Z,101076.85
2018-12-10T02:46:45.775Z,101075.57
2018-12-10T02:47:51.168Z,101073.90
2018-12-10T02:48:56.743Z,101079.77
2018-12-10T02:50:02.195Z,101077.67
2018-12-10T02:51:07.607Z,101079.38
2018-12-10T02:52:13.216Z,101078.53
2018-12-10T02:53:18.676Z,101081.48
2018-12-10T02:54:24.062Z,101081.48
2018-12-10T02:55:29.528Z,101071.31
2018-12-10T02:56:35.014Z,101078.50
2018-12-10T02:57:40.467Z,101075.11
2018-12-10T02:58:45.907Z,101081.47
2018-12-10T02:59:51.295Z,101086.11
2018-12-10T03:00:56.724Z,101078.89
2018-12-10T03:02:02.112Z,101080.15
2018-12-10T03:03:08.827Z,101083.09
2018-12-10T03:04:14.366Z,101083.11
2018-12-10T03:05:19.814Z,101084.35
2018-12-10T03:06:25.474Z,101088.17
2018-12-10T03:07:30.946Z,101086.50
2018-12-10T03:08:36.350Z,101091.55
2018-12-10T03:09:41.800Z,101091.57
2018-12-10T03:10:47.255Z,101092.00
2018-12-10T03:11:52.684Z,101097.09
2018-12-10T03:12:58.075Z,101098.39
2018-12-10T03:14:04.084Z,101101.78
2018-12-10T03:15:09.526Z,101095.02
2018-12-10T03:16:14.950Z,101089.94
2018-12-10T03:17:20.522Z,101092.09
2018-12-10T03:18:25.908Z,101097.56
2018-12-10T03:19:31.471Z,101098.42
2018-12-10T03:20:36.851Z,101104.77
2018-12-10T03:21:42.300Z,101111.11
2018-12-10T03:22:47.759Z,101110.64
2018-12-10T03:23:53.215Z,101109.82
2018-12-10T03:24:58.681Z,101106.42
2018-12-10T03:26:04.128Z,101114.91
2018-12-10T03:27:09.547Z,101114.91
2018-12-10T03:28:15.077Z,101114.52
2018-12-10T03:29:20.492Z,101118.73
2018-12-10T03:30:25.926Z,101120.44
2018-12-10T03:31:31.337Z,101119.59
2018-12-10T03:32:36.838Z,101112.44
2018-12-10T03:33:42.287Z,101111.16
2018-12-10T03:34:47.669Z,101115.41
2018-12-10T03:35:53.145Z,101119.23
2018-12-10T03:36:58.598Z,101120.49
2018-12-10T03:38:04.000Z,101131.50
2018-12-10T03:39:09.422Z,101130.66
2018-12-10T03:40:14.803Z,101130.21
2018-12-10T03:41:20.230Z,101135.28
2018-12-10T03:42:25.819Z,101138.25
2018-12-10T03:43:31.242Z,101144.16
2018-12-10T03:44:36.687Z,101141.67
2018-12-10T03:45:42.079Z,101129.01
2018-12-10T03:46:47.480Z,101141.72
2018-12-10T03:47:52.911Z,101131.56
2018-12-10T03:48:58.347Z,101138.36
2018-12-10T03:50:04.556Z,101132.02
2018-12-10T03:51:10.009Z,101137.95
2018-12-10T03:52:15.444Z,101141.33
2018-12-10T03:53:20.843Z,101139.63
2018-12-10T03:54:26.232Z,101135.42
2018-12-10T03:55:31.642Z,101137.52
2018-12-10T03:56:37.011Z,101140.50
2018-12-10T03:57:42.537Z,101138.39
2018-12-10T03:58:47.936Z,101144.74
2018-12-10T03:59:53.313Z,101142.20
2018-12-10T04:00:58.844Z,101145.17
2018-12-10T04:02:04.318Z,101142.64
2018-12-10T04:03:09.886Z,101139.66
2018-12-10T04:04:15.290Z,101145.19
2018-12-10T04:05:20.736Z,101143.53
2018-12-10T04:06:26.234Z,101149.44
2018-12-10T04:07:31.704Z,101144.36
2018-12-10T04:08:37.116Z,101142.67
2018-12-10T04:09:42.604Z,101144.77
2018-12-10T04:10:48.146Z,101145.20
2018-12-10T04:11:53.596Z,101147.73
2018-12-10T04:12:59.132Z,101153.22
2018-12-10T04:14:04.682Z,101148.56
2018-12-10T04:15:10.410Z,101151.09
2018-12-10T04:16:16.119Z,101150.23
2018-12-10T04:17:21.540Z,101153.20
2018-12-10T04:18:27.036Z,101158.67
2018-12-10T04:19:32.515Z,101160.73
2018-12-10T04:20:37.924Z,101167.95
2018-12-10T04:21:43.365Z,101164.96
2018-12-10T04:22:48.793Z,101171.69
2018-12-10T04:23:54.243Z,101171.68
2018-12-10T04:24:59.722Z,101166.62
2018-12-10T04:26:05.368Z,101172.97
2018-12-10T04:27:11.038Z,101175.53
2018-12-10T04:28:18.286Z,101177.18
2018-12-10T04:29:23.669Z,101181.00
2018-12-10T04:30:29.162Z,101182.27
2018-12-10T04:31:36.343Z,101184.38
2018-12-10T04:32:42.151Z,101183.09
2018-12-10T04:33:47.702Z,101186.08
2018-12-10T04:34:53.066Z,101190.69
2018-12-10T04:35:58.525Z,101193.63
2018-12-10T04:37:03.985Z,101191.48
2018-12-10T04:38:09.564Z,101202.11
2018-12-10T04:39:14.978Z,101200.83
2018-12-10T04:40:20.375Z,101196.62
2018-12-10T04:41:25.849Z,101199.16
2018-12-10T04:42:31.409Z,101193.67
2018-12-10T04:43:37.214Z,101198.38
2018-12-10T04:44:42.631Z,101198.75
2018-12-10T04:45:48.067Z,101200.51
2018-12-10T04:46:53.789Z,101195.02
2018-12-10T04:47:59.461Z,101202.59
2018-12-10T04:49:05.000Z,101193.67
2018-12-10T04:50:10.483Z,101195.80
2018-12-10T04:51:15.988Z,101202.15
2018-12-10T04:52:21.377Z,101206.80
2018-12-10T04:53:27.011Z,101205.54
2018-12-10T04:54:32.572Z,101209.75
2018-12-10T04:55:38.035Z,101209.28
2018-12-10T04:56:43.457Z,101211.83
2018-12-10T04:57:48.973Z,101212.66
2018-12-10T04:58:54.372Z,101212.64
2018-12-10T04:59:59.802Z,101210.05
2018-12-10T05:01:05.476Z,101215.96
2018-12-10T05:02:11.007Z,101220.67
2018-12-10T05:03:20.565Z,101213.87
2018-12-10T05:04:26.039Z,101220.63
2018-12-10T05:05:31.598Z,101216.84
2018-12-10T05:06:37.024Z,101220.67
2018-12-10T05:07:42.515Z,101213.90
2018-12-10T05:08:48.017Z,101217.25
2018-12-10T05:09:53.559Z,101221.00
2018-12-10T05:10:59.651Z,101214.62
2018-12-10T05:12:05.247Z,101219.70
2018-12-10T05:13:10.675Z,101220.98
2018-12-10T05:14:16.107Z,101220.16
2018-12-10T05:15:21.644Z,101221.84
2018-12-10T05:16:27.086Z,101223.55
2018-12-10T05:17:32.551Z,101236.69
2018-12-10T05:18:38.040Z,101231.63
2018-12-10T05:19:43.483Z,101227.38
2018-12-10T05:20:48.983Z,101229.94
2018-12-10T05:21:54.411Z,101228.63
2018-12-10T05:22:59.959Z,101225.65
2018-12-10T05:24:05.576Z,101224.73
2018-12-10T05:25:11.216Z,101228.94
2018-12-10T05:26:16.705Z,101232.25
2018-12-10T05:27:22.119Z,101228.46
2018-12-10T05:28:27.545Z,101227.98
2018-12-10T05:29:33.078Z,101225.88
2018-12-10T05:30:38.531Z,101235.19
2018-12-10T05:31:43.990Z,101236.46
2018-12-10T05:32:49.622Z,101236.91
2018-12-10T05:33:55.091Z,101232.66
2018-12-10T05:35:00.713Z,101230.11
2018-12-10T05:36:06.223Z,101239.39
2018-12-10T05:37:11.679Z,101244.05
2018-12-10T05:38:17.104Z,101235.14
2018-12-10T05:39:22.591Z,101241.85
2018-12-10T05:40:28.178Z,101235.98
2018-12-10T05:41:33.618Z,101238.91
2018-12-10T05:42:39.224Z,101239.72
2018-12-10T05:43:44.687Z,101243.48
2018-12-10T05:44:50.122Z,101250.22
2018-12-10T05:45:55.780Z,101245.12
2018-12-10T05:47:01.252Z,101243.00
2018-12-10T05:48:06.687Z,101250.23
2018-12-10T05:49:12.226Z,101247.29
2018-12-10T05:50:17.720Z,101252.81
2018-12-10T05:51:23.298Z,101247.76
2018-12-10T05:52:28.819Z,101248.17
2018-12-10T05:53:34.248Z,101250.74
2018-12-10T05:54:39.660Z,101255.86
2018-12-10T05:55:45.150Z,101256.28
2018-12-10T05:56:50.583Z,101257.14
2018-12-10T05:57:56.013Z,101257.14
2018-12-10T05:59:01.476Z,101252.91
2018-12-10T06:00:07.275Z,101258.84
2018-12-10T06:01:12.723Z,101252.02
2018-12-10T06:02:18.184Z,101251.19
2018-12-10T06:03:23.692Z,101259.27
2018-12-10T06:04:29.183Z,101252.11
2018-12-10T06:05:41.155Z,101266.90
2018-12-10T06:06:46.599Z,101265.62
2018-12-10T06:07:52.065Z,101270.67
2018-12-10T06:08:57.513Z,101272.83
2018-12-10T06:10:03.125Z,101274.09
2018-12-10T06:11:08.617Z,101261.84
2018-12-10T06:12:14.057Z,101274.91
2018-12-10T06:13:19.458Z,101276.16
2018-12-10T06:14:24.918Z,101271.95
2018-12-10T06:15:30.459Z,101265.20
2018-12-10T06:16:36.007Z,101271.09
2018-12-10T06:17:41.463Z,101268.55
2018-12-10T06:18:46.912Z,101274.48
2018-12-10T06:19:52.392Z,101272.03
2018-12-10T06:20:57.997Z,101273.72
2018-12-10T06:22:03.577Z,101276.23
2018-12-10T06:23:08.966Z,101276.64
2018-12-10T06:24:14.351Z,101272.00
2018-12-10T06:25:19.986Z,101275.81
2018-12-10T06:26:25.430Z,101271.17
2018-12-10T06:27:30.886Z,101279.66
2018-12-10T06:28:36.287Z,101283.48
2018-12-10T06:29:41.852Z,101288.52
2018-12-10T06:30:47.314Z,101287.22
2018-12-10T06:31:52.738Z,101285.08
2018-12-10T06:32:58.192Z,101278.29
2018-12-10T06:34:03.667Z,101288.86
2018-12-10T06:35:09.340Z,101283.36
2018-12-10T06:36:14.833Z,101287.18
2018-12-10T06:37:20.267Z,101286.30
2018-12-10T06:38:25.863Z,101293.09
2018-12-10T06:39:31.343Z,101296.89
2018-12-10T06:40:36.847Z,101296.45
2018-12-10T06:41:42.272Z,101292.20
2018-12-10T06:42:47.855Z,101292.13
2018-12-10T06:43:53.335Z,101289.20
2018-12-10T06:44:58.739Z,101290.47
2018-12-10T06:46:04.283Z,101289.21
2018-12-10T06:47:09.718Z,101293.89
2018-12-10T06:48:15.209Z,101300.62
2018-12-10T06:49:20.655Z,101305.69
2018-12-10T06:51:28.783Z,101296.42
2018-12-10T06:52:34.231Z,101301.03
2018-12-10T06:53:39.707Z,101298.47
2018-12-10T06:54:45.170Z,101297.66
2018-12-10T06:55:50.557Z,101302.73
2018-12-10T06:56:56.106Z,101307.75
2018-12-10T06:58:01.623Z,101306.97
2018-12-10T06:59:07.170Z,101306.47
2018-12-10T07:00:13.832Z,101308.61
2018-12-10T07:01:19.276Z,101313.70
2018-12-10T07:02:24.699Z,101304.37
2018-12-10T07:03:30.193Z,101313.23
2018-12-10T07:04:35.725Z,101306.94
2018-12-10T07:05:41.179Z,101310.73
2018-12-10T07:06:46.615Z,101316.17
2018-12-10T07:07:52.130Z,101314.88
2018-12-10T07:08:57.771Z,101321.20
2018-12-10T07:10:04.234Z,101321.67
2018-12-10T07:11:09.657Z,101329.69
2018-12-10T07:12:15.124Z,101328.02
2018-12-10T07:13:20.558Z,101327.55
2018-12-10T07:14:26.063Z,101330.05
2018-12-10T07:15:31.459Z,101330.86
2018-12-10T07:16:37.041Z,101337.67
2018-12-10T07:17:42.456Z,101339.82
2018-12-10T07:18:47.866Z,101344.89
2018-12-10T07:19:53.335Z,101342.41
2018-12-10T07:20:58.918Z,101345.79
2018-12-10T07:22:04.410Z,101343.31
2018-12-10T07:23:09.865Z,101343.75
2018-12-10T07:24:15.310Z,101352.64
2018-12-10T07:25:20.736Z,101357.31
2018-12-10T07:26:26.511Z,101359.89
2018-12-10T07:27:31.959Z,101361.56
2018-12-10T07:28:38.040Z,101362.85
2018-12-10T07:29:43.600Z,101358.64
2018-12-10T07:30:48.969Z,101352.76
2018-12-10T07:31:55.020Z,101362.97
2018-12-10T07:33:00.445Z,101365.94
2018-12-10T07:34:05.876Z,101360.91
2018-12-10T07:35:11.359Z,101369.81
2018-12-10T07:36:16.784Z,101357.14
2018-12-10T07:37:22.236Z,101366.05
2018-12-10T07:38:27.695Z,101359.74
2018-12-10T07:39:33.103Z,101348.73
2018-12-10T07:40:38.535Z,101338.59
2018-12-10T07:41:43.957Z,101341.98
2018-12-10T07:42:49.435Z,101344.52
2018-12-10T07:43:54.835Z,101348.28
2018-12-10T07:45:00.264Z,101354.63
2018-12-10T07:46:05.700Z,101347.84
2018-12-10T07:47:11.122Z,101355.45
2018-12-10T07:48:16.524Z,101353.70
2018-12-10T07:49:21.909Z,101357.03
2018-12-10T07:50:27.594Z,101356.61
2018-12-10T07:51:33.100Z,101360.41
2018-12-10T07:52:38.651Z,101356.53
2018-12-10T07:53:44.215Z,101363.67
2018-12-10T07:54:49.704Z,101358.98
2018-12-10T07:55:55.165Z,101358.98
2018-12-10T07:57:00.736Z,101355.59
2018-12-10T07:58:06.111Z,101357.31
2018-12-10T07:59:11.588Z,101365.33
2018-12-10T08:00:16.998Z,101367.31
2018-12-10T08:01:22.575Z,101372.39
2018-12-10T08:02:28.088Z,101374.11
2018-12-10T08:03:33.601Z,101377.05
2018-12-10T08:04:39.024Z,101377.05
2018-12-10T08:05:44.509Z,101375.83
2018-12-10T08:06:49.899Z,101376.72
2018-12-10T08:07:55.372Z,101386.05
2018-12-10T08:09:00.880Z,101399.61
2018-12-10T08:10:07.301Z,101405.59
2018-12-10T08:11:12.721Z,101411.16
2018-12-10T08:12:18.143Z,101421.34
2018-12-10T08:13:23.535Z,101423.47
2018-12-10T08:14:29.012Z,101433.16
2018-12-10T08:15:34.465Z,101430.30
2018-12-10T08:16:39.977Z,101430.73
2018-12-10T08:17:45.595Z,101429.90
2018-12-10T08:18:51.218Z,101434.48
2018-12-10T08:19:56.720Z,101431.14
2018-12-10T08:21:02.736Z,101434.45
2018-12-10T08:22:08.450Z,101428.05
2018-12-10T08:23:13.886Z,101420.73
2018-12-10T08:24:19.371Z,101400.75
2018-12-10T08:25:24.885Z,101394.39
2018-12-10T08:26:30.467Z,101383.81
2018-12-10T08:27:35.863Z,101390.50
2018-12-10T08:28:41.291Z,101392.64
2018-12-10T08:29:46.811Z,101398.92
2018-12-10T08:30:52.383Z,101395.94
2018-12-10T08:31:58.129Z,101397.62
2018-12-10T08:33:03.906Z,101402.58
2018-12-10T08:34:09.484Z,101397.13
2018-12-10T08:35:15.075Z,101399.66
2018-12-10T08:36:20.498Z,101402.14
2018-12-10T08:37:25.939Z,101394.94
2018-12-10T08:38:31.418Z,101394.36
2018-12-10T08:39:36.883Z,101397.63
2018-12-10T08:40:42.331Z,101397.66
2018-12-10T08:41:47.778Z,101401.51
2018-12-10T08:42:53.200Z,101409.94
2018-12-10T08:43:58.708Z,101411.20
2018-12-10T08:45:05.080Z,101415.84
2018-12-10T08:46:10.645Z,101419.25
2018-12-10T08:47:16.487Z,101418.42
2018-12-10T08:48:22.168Z,101419.74
2018-12-10T08:49:27.718Z,101410.45
2018-12-10T08:50:33.350Z,101409.55
2018-12-10T08:51:39.090Z,101409.56
2018-12-10T08:52:44.739Z,101414.20
2018-12-10T08:53:50.187Z,101407.47
2018-12-10T08:54:55.782Z,101415.50
2018-12-10T08:56:01.299Z,101408.69
2018-12-10T08:57:07.062Z,101407.45
2018-12-10T08:58:12.771Z,101418.88
2018-12-10T08:59:18.318Z,101415.07
2018-12-10T09:00:23.720Z,101418.05
2018-12-10T09:01:29.317Z,101417.25
2018-12-10T09:02:34.943Z,101414.32
2018-12-10T09:03:40.383Z,101421.95
2018-12-10T09:04:45.755Z,101412.23
2018-12-10T09:05:51.306Z,101417.75
2018-12-10T09:06:56.683Z,101419.48
2018-12-10T09:08:02.233Z,101415.77
2018-12-10T09:09:08.281Z,101418.32
2018-12-10T09:10:13.862Z,101417.05
2018-12-10T09:11:19.307Z,101422.98
2018-12-10T09:12:24.802Z,101426.03
2018-12-10T09:13:30.279Z,101424.78
2018-12-10T09:14:35.822Z,101419.75
2018-12-10T09:15:41.561Z,101421.45
2018-12-10T09:16:47.067Z,101424.44
2018-12-10T09:17:52.579Z,101429.97
2018-12-10T09:18:58.095Z,101427.88
2018-12-10T09:20:03.987Z,101431.31
2018-12-10T09:21:09.596Z,101434.33
2018-12-10T09:22:15.119Z,101435.64
2018-12-10T09:23:20.875Z,101445.42
2018-12-10T09:24:26.425Z,101442.55
2018-12-10T09:25:32.023Z,101446.41
2018-12-10T09:26:37.709Z,101445.20
2018-12-10T09:27:43.123Z,101442.23
2018-12-10T09:28:48.663Z,101443.59
2018-12-10T09:29:54.080Z,101441.08
2018-12-10T09:30:59.582Z,101448.36
2018-12-10T09:32:05.082Z,101447.55
2018-12-10T09:33:10.651Z,101454.81
2018-12-10T09:34:16.122Z,101457.83
2018-12-10T09:35:21.526Z,101458.26
2018-12-10T09:36:27.150Z,101473.95
2018-12-10T09:37:32.583Z,101478.16
2018-12-10T09:38:38.047Z,101476.05
2018-12-10T09:39:43.490Z,101476.89
2018-12-10T09:40:48.915Z,101462.05
2018-12-10T09:41:54.420Z,101458.58
2018-12-10T09:42:59.864Z,101450.58
2018-12-10T09:44:05.880Z,101460.30
2018-12-10T09:45:11.639Z,101449.22
2018-12-10T09:46:17.053Z,101447.48
2018-12-10T09:47:22.919Z,101439.39
2018-12-10T09:48:28.316Z,101444.47
2018-12-10T09:49:33.733Z,101453.28
2018-12-10T09:50:39.173Z,101452.00
2018-12-10T09:51:44.616Z,101457.11
2018-12-10T09:52:50.083Z,101457.07
2018-12-10T09:53:55.451Z,101459.55
2018-12-10T09:55:00.860Z,101452.74
2018-12-10T09:56:06.407Z,101459.55
2018-12-10T09:57:11.822Z,101452.35
2018-12-10T09:58:17.219Z,101454.52
2018-12-10T09:59:22.658Z,101449.94
2018-12-10T10:00:28.347Z,101447.09
2018-12-10T10:01:34.780Z,101448.02
2018-12-10T10:02:40.218Z,101444.31
2018-12-10T10:03:45.663Z,101445.23
2018-12-10T10:04:51.058Z,101448.26
2018-12-10T10:05:56.486Z,101447.05
2018-12-10T10:07:02.015Z,101455.02
2018-12-10T10:08:07.476Z,101446.52
2018-12-10T10:09:12.895Z,101451.64
2018-12-10T10:10:18.348Z,101443.96
2018-12-10T10:11:23.911Z,101453.23
2018-12-10T10:12:29.567Z,101457.84
2018-12-10T10:13:34.973Z,101459.17
2018-12-10T10:14:40.443Z,101463.45
2018-12-10T10:15:45.946Z,101464.80
2018-12-10T10:16:51.623Z,101463.20
2018-12-10T10:17:58.899Z,101460.27
2018-12-10T10:19:04.654Z,101459.89
2018-12-10T10:20:10.059Z,101459.94
2018-12-10T10:21:15.566Z,101464.17
2018-12-10T10:22:20.995Z,101469.70
2018-12-10T10:23:26.583Z,101461.25
2018-12-10T10:24:31.989Z,101461.28
2018-12-10T10:25:37.375Z,101458.33
2018-12-10T10:26:42.755Z,101459.17
2018-12-10T10:27:48.217Z,101456.65
2018-12-10T10:28:53.720Z,101454.13
2018-12-10T10:29:59.123Z,101462.61
2018-12-10T10:31:04.653Z,101469.84
2018-12-10T10:32:10.046Z,101457.66
2018-12-10T10:33:15.446Z,101462.34
2018-12-10T10:34:20.947Z,101466.20
2018-12-10T10:35:26.332Z,101458.56
2018-12-10T10:36:31.766Z,101465.80
2018-12-10T10:37:37.203Z,101464.95
2018-12-10T10:38:42.678Z,101466.66
2018-12-10T10:39:48.188Z,101459.03
2018-12-10T10:40:53.571Z,101464.55
2018-12-10T10:41:59.704Z,101457.77
2018-12-10T10:43:05.137Z,101455.27
2018-12-10T10:44:10.609Z,101451.47
2018-12-10T10:45:16.169Z,101450.25
2018-12-10T10:46:21.731Z,101455.33
2018-12-10T10:47:27.125Z,101453.66
2018-12-10T10:48:32.516Z,101452.78
2018-12-10T10:49:37.905Z,101458.73
2018-12-10T10:50:43.367Z,101457.44
2018-12-10T10:51:48.763Z,101463.38
2018-12-10T10:52:54.360Z,101465.92
2018-12-10T10:53:59.857Z,101469.76
2018-12-10T10:55:06.306Z,101466.77
2018-12-10T10:56:11.768Z,101463.80
2018-12-10T10:57:17.231Z,101447.27
2018-12-10T10:58:22.694Z,101460.86
2018-12-10T10:59:28.976Z,101463.38
2018-12-10T11:00:39.706Z,101450.66
2018-12-10T11:01:50.451Z,101451.49
2018-12-10T11:03:59.391Z,101448.53
2018-12-10T11:05:05.946Z,101449.83
2018-12-10T11:06:11.431Z,101446.42
2018-12-10T11:07:16.899Z,101439.19
2018-12-10T11:08:22.422Z,101439.19
2018-12-10T11:09:27.827Z,101439.60
2018-12-10T11:10:33.289Z,101440.03
2018-12-10T11:11:38.763Z,101437.48
2018-12-10T11:12:44.257Z,101434.08
2018-12-10T11:13:49.774Z,101434.56
2018-12-10T11:14:55.533Z,101429.05
2018-12-10T11:16:00.892Z,101430.79
2018-12-10T11:17:06.305Z,101437.57
2018-12-10T11:18:11.846Z,101426.55
2018-12-10T11:19:18.296Z,101436.73
2018-12-10T11:20:23.947Z,101433.33
2018-12-10T11:21:29.496Z,101438.87
2018-12-10T11:22:34.998Z,101441.85
2018-12-10T11:23:41.489Z,101438.45
2018-12-10T11:24:47.074Z,101437.23
2018-12-10T11:25:52.685Z,101441.05
2018-12-10T11:26:58.088Z,101443.63
2018-12-10T11:28:03.961Z,101447.42
2018-12-10T11:29:09.380Z,101443.19
2018-12-10T11:30:14.842Z,101438.56
2018-12-10T11:31:20.260Z,101444.08
2018-12-10T11:32:25.864Z,101439.41
2018-12-10T11:33:31.523Z,101440.27
2018-12-10T11:34:37.024Z,101446.64
2018-12-10T11:35:42.477Z,101447.08
2018-12-10T11:36:47.977Z,101447.09
2018-12-10T11:37:53.652Z,101452.20
2018-12-10T11:38:59.102Z,101451.78
2018-12-10T11:40:04.828Z,101443.69
2018-12-10T11:41:10.238Z,101447.11
2018-12-10T11:42:15.695Z,101441.16
2018-12-10T11:43:21.087Z,101436.92
2018-12-10T11:44:26.484Z,101441.57
2018-12-10T11:45:32.021Z,101444.96
2018-12-10T11:46:37.496Z,101443.69
2018-12-10T11:47:42.903Z,101435.66
2018-12-10T11:48:48.372Z,101448.38
2018-12-10T11:49:53.767Z,101436.92
2018-12-10T11:50:59.297Z,101440.33
2018-12-10T11:52:04.805Z,101436.94
2018-12-10T11:53:10.552Z,101441.16
2018-12-10T11:54:15.960Z,101430.11
2018-12-10T11:55:21.379Z,101444.99
2018-12-10T11:56:26.814Z,101442.03
2018-12-10T11:57:32.310Z,101435.63
2018-12-10T11:58:37.789Z,101443.27
2018-12-10T11:59:43.232Z,101444.96
2018-12-10T12:00:48.620Z,101448.78
2018-12-10T12:01:54.127Z,101449.22
2018-12-10T12:02:59.503Z,101448.79
2018-12-10T12:04:05.103Z,101444.98
2018-12-10T12:05:10.510Z,101459.45
2018-12-10T12:06:16.029Z,101452.21
2018-12-10T12:07:21.746Z,101462.00
2018-12-10T12:08:27.137Z,101472.20
2018-12-10T12:09:32.562Z,101467.51
2018-12-10T12:10:37.998Z,101473.87
2018-12-10T12:11:43.459Z,101487.87
2018-12-10T12:12:49.078Z,101489.50
2018-12-10T12:13:54.503Z,101476.30
2018-12-10T12:14:59.995Z,101470.23
2018-12-10T12:16:05.629Z,101476.58
2018-12-10T12:17:11.111Z,101472.20
2018-12-10T12:18:16.614Z,101472.56
2018-12-10T12:19:22.086Z,101472.92
2018-12-10T12:20:27.506Z,101466.55
2018-12-10T12:21:33.203Z,101463.02
2018-12-10T12:22:38.594Z,101478.13
2018-12-10T12:23:51.319Z,101472.11
2018-12-10T12:24:57.745Z,101483.44
2018-12-10T12:26:03.163Z,101470.74
2018-12-10T12:27:08.618Z,101457.52
2018-12-10T12:28:14.105Z,101451.98
2018-12-10T12:29:19.544Z,101452.81
2018-12-10T12:30:24.927Z,101448.53